Time;durP1;ratioP1;P1;durP2;ratioP2;P2;SDS_P1;SDS_P2;PMS_P1;PMS_P2;Temp;Humidity;BMP_temperature;BMP_pressure;BME280_temperature;BME280_humidity;BME280_pressure;Samples;Min_cycle;Max_cycle;Signal;HPM_P1;HPM_P2
2023/03/28 00:01:01;;;;;;;4.73;2.50;;;;;;;1.89;57.56;99625.78;1456494;89;21612;-81
2023/03/28 00:03:28;;;;;;;2.67;1.73;;;;;;;1.91;59.18;99614.77;1440298;89;21699;-81
2023/03/28 00:06:01;;;;;;;5.57;1.63;;;;;;;1.89;59.22;99623.17;1429002;91;21542;-80
2023/03/28 00:08:28;;;;;;;2.20;1.30;;;;;;;1.85;59.75;99625.66;1455107;88;21636;-81
2023/03/28 00:11:08;;;;;;;2.23;1.67;;;;;;;1.82;59.66;99629.80;1431232;91;22545;-81
2023/03/28 00:13:35;;;;;;;2.83;1.67;;;;;;;1.78;60.11;99628.72;1449540;88;22615;-80
2023/03/28 00:16:06;;;;;;;2.53;1.30;;;;;;;1.78;61.45;99633.94;1430778;91;22131;-81
2023/03/28 00:18:36;;;;;;;4.50;1.85;;;;;;;1.74;60.58;99634.25;1452787;89;21523;-81
2023/03/28 00:21:01;;;;;;;2.77;1.43;;;;;;;1.72;61.01;99630.91;1426628;91;21452;-80
2023/03/28 00:23:29;;;;;;;9.57;3.00;;;;;;;1.68;60.46;99634.22;1453692;89;21758;-80
2023/03/28 00:25:56;;;;;;;4.47;1.70;;;;;;;1.70;61.34;99632.34;1455099;89;21633;-79
2023/03/28 00:28:22;;;;;;;2.47;1.53;;;;;;;1.66;61.54;99642.63;1454227;90;22544;-80
2023/03/28 00:30:48;;;;;;;6.07;1.67;;;;;;;1.67;59.96;99646.05;1431329;91;21525;-81
2023/03/28 00:33:14;;;;;;;3.13;1.80;;;;;;;1.67;60.38;99640.39;1451684;90;21661;-81
2023/03/28 00:35:41;;;;;;;3.20;1.40;;;;;;;1.67;59.71;99642.14;1431702;91;23071;-80
2023/03/28 00:38:07;;;;;;;3.53;1.97;;;;;;;1.66;58.52;99646.53;1453701;88;21768;-80
2023/03/28 00:40:37;;;;;;;2.93;1.83;;;;;;;1.68;59.78;99664.22;1434415;91;21645;-79
2023/03/28 00:43:04;;;;;;;2.80;1.50;;;;;;;1.64;59.01;99670.61;1459795;89;21736;-79
2023/03/28 00:45:31;;;;;;;4.17;1.77;;;;;;;1.66;59.36;99673.09;1427779;91;21508;-80
2023/03/28 00:48:09;;;;;;;3.40;1.87;;;;;;;1.62;58.59;99680.31;1451196;88;22736;-79
2023/03/28 00:50:40;;;;;;;4.13;2.37;;;;;;;1.60;56.84;99673.06;1432203;91;21631;-80
2023/03/28 00:53:14;;;;;;;4.73;3.00;;;;;;;1.60;58.33;99690.48;1457018;89;22731;-80
2023/03/28 00:55:52;;;;;;;7.17;2.63;;;;;;;1.63;59.93;99688.97;1462490;89;21591;-80
2023/03/28 00:58:23;;;;;;;5.80;2.37;;;;;;;1.56;59.24;99692.48;1424487;91;21761;-81
2023/03/28 01:00:49;;;;;;;3.83;1.95;;;;;;;1.56;60.59;99697.23;1461237;89;21649;-80
2023/03/28 01:03:18;;;;;;;4.30;2.17;;;;;;;1.53;60.01;99697.92;1430182;91;21400;-80
2023/03/28 01:05:46;;;;;;;7.07;2.30;;;;;;;1.49;59.54;99701.67;1457772;90;21457;-79
2023/03/28 01:08:25;;;;;;;2.13;1.53;;;;;;;1.49;59.89;99697.76;1430765;91;21694;-80
2023/03/28 01:10:51;;;;;;;3.37;2.00;;;;;;;1.51;61.28;99708.92;1457100;88;22220;-80
2023/03/28 01:13:25;;;;;;;3.33;1.90;;;;;;;1.49;61.66;99711.63;1438156;90;21736;-81
2023/03/28 01:15:52;;;;;;;4.97;1.77;;;;;;;1.46;61.38;99709.70;1445322;90;21515;-81
2023/03/28 01:18:21;;;;;;;4.10;2.20;;;;;;;1.43;60.73;99712.53;1458697;89;21662;-81
2023/03/28 01:21:17;;;;;;;5.13;1.93;;;;;;;1.45;60.96;99706.75;1429913;91;21408;-81
2023/03/28 01:24:14;;;;;;;5.33;2.47;;;;;;;1.41;60.35;99715.27;1452847;89;21612;-81
2023/03/28 01:26:58;;;;;;;3.17;2.00;;;;;;;1.46;61.75;99714.92;1414934;89;21548;-80
2023/03/28 01:30:00;;;;;;;6.00;2.17;;;;;;;1.41;61.90;99716.56;1431510;91;21697;-81
2023/03/28 01:33:16;;;;;;;3.52;2.15;;;;;;;1.37;61.37;99718.17;1450591;89;21625;-80
2023/03/28 01:36:30;;;;;;;5.03;3.07;;;;;;;1.35;61.47;99727.39;1424524;91;21401;-80
2023/03/28 01:39:27;;;;;;;4.40;2.73;;;;;;;1.37;61.89;99728.61;1450542;88;21743;-80
2023/03/28 01:42:20;;;;;;;6.33;3.07;;;;;;;1.33;62.44;99737.95;1428605;91;22734;-81
2023/03/28 01:45:13;;;;;;;4.53;1.73;;;;;;;1.33;63.17;99741.86;1452336;88;21770;-80
2023/03/28 01:47:45;;;;;;;3.67;2.40;;;;;;;1.30;62.69;99739.46;1431358;91;21573;-80
2023/03/28 01:50:25;;;;;;;4.30;2.17;;;;;;;1.28;62.47;99740.03;1448270;90;21558;-82
2023/03/28 01:53:18;;;;;;;3.52;2.02;;;;;;;1.26;62.08;99748.89;1431407;91;21681;-80
2023/03/28 01:56:04;;;;;;;6.73;1.70;;;;;;;1.24;61.57;99749.48;1453812;90;21427;-80
2023/03/28 01:58:51;;;;;;;5.40;2.10;;;;;;;1.23;61.64;99753.84;1458626;89;21913;-81
2023/03/28 02:01:29;;;;;;;3.50;2.10;;;;;;;1.20;61.33;99761.87;1422045;91;21751;-80
2023/03/28 02:04:01;;;;;;;4.73;2.17;;;;;;;1.20;62.70;99765.78;1449898;89;21560;-81
2023/03/28 02:06:29;;;;;;;6.97;2.80;;;;;;;1.18;61.93;99766.38;1428946;91;21645;-81
2023/03/28 02:08:57;;;;;;;4.77;1.97;;;;;;;1.17;62.43;99770.38;1449751;89;22641;-81
2023/03/28 02:11:26;;;;;;;6.17;1.80;;;;;;;1.12;60.18;99781.95;1412366;91;21635;-81
2023/03/28 02:13:58;;;;;;;3.33;1.50;;;;;;;1.13;60.82;99788.00;1451453;88;22636;-81
2023/03/28 02:16:24;;;;;;;;;;;;;;;1.10;61.01;99786.43;1429850;91;21921;-81
2023/03/28 02:18:55;;;;;;;5.63;1.70;;;;;;;1.09;62.07;99787.82;1412501;92;20379;-81
2023/03/28 02:21:33;;;;;;;3.55;1.40;;;;;;;1.06;60.88;99794.06;1457695;90;21528;-81
2023/03/28 02:23:59;;;;;;;3.50;1.83;;;;;;;1.02;60.29;99802.21;1419671;91;21386;-81
2023/03/28 02:26:26;;;;;;;2.87;1.80;;;;;;;0.97;59.74;99797.30;1455640;89;21463;-82
2023/03/28 02:28:56;;;;;;;3.43;1.50;;;;;;;0.98;60.88;99802.03;1457807;90;22639;-82
2023/03/28 02:31:23;;;;;;;6.10;2.00;;;;;;;0.95;59.78;99804.84;1435884;91;22686;-81
2023/03/28 02:33:51;;;;;;;5.53;1.83;;;;;;;0.93;59.96;99811.95;1452487;90;21657;-80
2023/03/28 02:36:43;;;;;;;7.53;3.70;;;;;;;0.91;60.29;99817.25;1430854;91;21583;-80
2023/03/28 02:39:36;;;;;;;4.97;1.63;;;;;;;0.90;60.99;99815.11;1451872;89;21399;-80
2023/03/28 02:42:41;;;;;;;2.80;1.70;;;;;;;0.92;61.55;99816.77;1427322;89;21929;-80
2023/03/28 02:45:35;;;;;;;4.97;1.90;;;;;;;0.87;61.33;99825.73;1448330;89;21593;-81
2023/03/28 02:48:12;;;;;;;8.43;2.97;;;;;;;0.82;61.40;99829.58;1422443;91;21605;-80
2023/03/28 02:51:10;;;;;;;5.13;1.63;;;;;;;0.81;62.00;99836.56;1453585;89;21759;-80
2023/03/28 02:54:09;;;;;;;3.73;2.23;;;;;;;0.84;62.83;99843.34;1436770;91;21825;-81
2023/03/28 02:56:49;;;;;;;3.83;2.20;;;;;;;0.79;62.49;99850.14;1454667;89;21853;-81
2023/03/28 02:59:23;;;;;;;2.50;1.50;;;;;;;0.78;62.50;99850.27;1432081;91;21586;-80
2023/03/28 03:01:50;;;;;;;3.50;2.33;;;;;;;0.73;62.67;99857.06;1443837;90;21840;-80
2023/03/28 03:04:17;;;;;;;5.73;1.87;;;;;;;0.65;60.87;99860.62;1427581;91;21500;-80
2023/03/28 03:06:47;;;;;;;2.60;1.63;;;;;;;0.63;60.70;99872.89;1461224;88;22475;-80
2023/03/28 03:09:15;;;;;;;2.98;1.40;;;;;;;0.60;58.75;99879.60;1454256;89;21649;-79
2023/03/28 03:11:41;;;;;;;3.33;1.70;;;;;;;0.56;58.56;99882.05;1432344;91;21393;-81
2023/03/28 03:14:07;;;;;;;3.53;1.80;;;;;;;0.57;57.66;99885.01;1449389;88;21554;-80
2023/03/28 03:16:37;;;;;;;4.90;2.33;;;;;;;0.58;57.08;99882.80;1433092;91;21472;-80
2023/03/28 03:19:02;;;;;;;5.37;2.13;;;;;;;0.56;56.23;99885.48;1457884;89;21508;-80
2023/03/28 03:21:28;;;;;;;5.27;2.27;;;;;;;0.59;57.53;99889.19;1431577;91;21755;-80
2023/03/28 03:23:54;;;;;;;1.97;1.27;;;;;;;0.51;56.59;99886.70;1455894;89;21598;-80
2023/03/28 03:26:21;;;;;;;4.13;2.10;;;;;;;0.51;56.59;99886.70;1430753;91;22942;-81
2023/03/28 03:28:48;;;;;;;4.07;1.83;;;;;;;0.51;57.35;99890.61;1451679;88;21621;-80
2023/03/28 03:31:16;;;;;;;3.10;1.60;;;;;;;0.51;57.84;99893.21;1449729;89;22234;-79
2023/03/28 03:33:42;;;;;;;2.57;1.70;;;;;;;0.45;57.81;99891.36;1452138;89;21596;-79
2023/03/28 03:36:11;;;;;;;4.43;1.60;;;;;;;0.47;59.08;99902.16;1402311;91;21602;-79
2023/03/28 03:38:38;;;;;;;3.37;1.50;;;;;;;0.42;60.33;99916.75;1453840;89;21626;-79
2023/03/28 03:41:05;;;;;;;3.17;1.77;;;;;;;0.35;60.07;99909.80;1427717;91;21467;-80
2023/03/28 03:43:33;;;;;;;3.90;2.30;;;;;;;0.34;59.77;99913.31;1455261;88;22834;-81
2023/03/28 03:46:01;;;;;;;5.53;2.53;;;;;;;0.34;60.73;99914.61;1430287;91;21474;-79
2023/03/28 03:48:27;;;;;;;4.30;2.30;;;;;;;0.31;61.34;99913.51;1454086;88;22465;-80
2023/03/28 03:50:53;;;;;;;4.03;2.10;;;;;;;0.27;62.55;99915.94;1426237;91;21570;-79
2023/03/28 03:53:19;;;;;;;3.77;1.83;;;;;;;0.21;62.07;99921.53;1455065;89;21760;-80
2023/03/28 03:55:45;;;;;;;5.73;2.53;;;;;;;0.18;62.61;99916.52;1456579;90;21648;-80
2023/03/28 03:58:12;;;;;;;4.37;2.67;;;;;;;0.12;62.97;99926.83;1459033;89;22423;-80
2023/03/28 04:00:39;;;;;;;7.93;4.17;;;;;;;0.07;63.44;99934.55;1429221;91;22129;-80
2023/03/28 04:03:05;;;;;;;5.70;3.08;;;;;;;0.04;63.99;99930.36;1453702;88;22908;-80
2023/03/28 04:05:31;;;;;;;8.40;2.83;;;;;;;-0.01;63.68;99937.59;1425187;91;22296;-80
2023/03/28 04:07:59;;;;;;;4.13;2.30;;;;;;;-0.03;63.97;99940.31;1451049;90;21516;-79
2023/03/28 04:10:25;;;;;;;4.93;2.90;;;;;;;-0.09;63.48;99943.25;1423265;91;22442;-78
2023/03/28 04:12:51;;;;;;;6.53;2.65;;;;;;;-0.07;63.73;99947.08;1453022;88;21792;-79
2023/03/28 04:15:17;;;;;;;6.37;1.87;;;;;;;-0.10;63.48;99951.99;1424568;91;21445;-78
2023/03/28 04:17:44;;;;;;;7.25;2.67;;;;;;;-0.11;63.37;99957.30;1455172;90;21479;-80
2023/03/28 04:20:10;;;;;;;6.30;2.35;;;;;;;-0.16;63.00;99966.67;1447992;89;21325;-80
2023/03/28 04:22:37;;;;;;;5.95;2.62;;;;;;;-0.16;63.67;99969.27;1426887;91;21386;-80
2023/03/28 04:25:04;;;;;;;5.53;2.67;;;;;;;-0.18;62.40;99969.81;1453971;88;21375;-80
2023/03/28 04:27:32;;;;;;;3.05;1.82;;;;;;;-0.18;61.26;99975.48;1429123;91;21327;-79
2023/03/28 04:30:00;;;;;;;3.20;1.60;;;;;;;-0.15;60.71;99973.53;1454059;89;22370;-77
2023/03/28 04:32:26;;;;;;;3.83;1.72;;;;;;;-0.14;59.32;99984.33;1456792;89;21470;-77
2023/03/28 04:34:52;;;;;;;5.03;2.83;;;;;;;-0.07;59.90;99981.72;1428770;91;22669;-78
2023/03/28 04:37:19;;;;;;;2.80;1.67;;;;;;;-0.06;59.93;99983.86;1450465;88;23009;-77
2023/03/28 04:39:52;;;;;;;5.40;1.90;;;;;;;-0.04;59.90;99992.41;1461315;89;21441;-78
2023/03/28 04:42:16;;;;;;;;;;;;;;;-0.04;58.80;99997.15;1423448;91;21460;-78
2023/03/28 04:44:42;;;;;;;5.50;2.03;;;;;;;-0.03;57.87;99995.38;1425172;92;20877;-79
2023/03/28 04:47:10;;;;;;;7.40;2.12;;;;;;;-0.01;57.51;100006.08;1445379;90;22092;-77
2023/03/28 04:49:37;;;;;;;6.35;2.55;;;;;;;0.02;58.04;100014.63;1455732;90;21493;-77
2023/03/28 04:52:05;;;;;;;5.87;2.50;;;;;;;0.03;56.82;100020.20;1433909;91;21348;-79
2023/03/28 04:54:34;;;;;;;3.80;1.83;;;;;;;0.07;57.30;100017.81;1451259;89;22866;-78
2023/03/28 04:57:01;;;;;;;3.70;2.27;;;;;;;0.09;57.59;100019.87;1427951;91;22539;-79
2023/03/28 04:59:27;;;;;;;7.07;1.70;;;;;;;0.09;56.45;100023.77;1452961;89;21755;-79
2023/03/28 05:01:53;;;;;;;2.72;1.67;;;;;;;0.11;56.67;100025.80;1447481;90;22118;-78
2023/03/28 05:04:21;;;;;;;3.15;1.60;;;;;;;0.14;56.14;100029.52;1434439;91;21481;-75
2023/03/28 05:06:48;;;;;;;3.70;1.67;;;;;;;0.16;56.27;100040.68;1458103;88;22321;-80
2023/03/28 05:09:16;;;;;;;4.37;1.90;;;;;;;0.19;56.41;100039.20;1431710;91;21556;-80
2023/03/28 05:11:45;;;;;;;3.97;1.70;;;;;;;0.22;55.68;100044.22;1448913;90;21656;-80
2023/03/28 05:14:11;;;;;;;4.83;1.83;;;;;;;0.27;55.69;100047.39;1451427;89;22026;-79
2023/03/28 05:16:37;;;;;;;6.83;2.47;;;;;;;0.32;55.04;100050.56;1458958;89;21692;-80
2023/03/28 05:19:04;;;;;;;5.20;2.23;;;;;;;0.38;55.66;100056.70;1458575;89;21551;-77
2023/03/28 05:21:30;;;;;;;4.80;2.60;;;;;;;0.43;55.45;100059.88;1451139;90;21588;-76
2023/03/28 05:23:56;;;;;;;9.00;2.80;;;;;;;0.47;55.58;100057.92;1430319;91;22603;-77
2023/03/28 05:26:23;;;;;;;3.43;1.67;;;;;;;0.52;55.46;100058.92;1448344;89;21604;-80
2023/03/28 05:28:49;;;;;;;2.80;1.73;;;;;;;0.54;53.81;100061.81;1452511;89;21544;-76
2023/03/28 05:31:16;;;;;;;6.53;2.83;;;;;;;0.62;53.63;100062.66;1458052;89;22588;-76
2023/03/28 05:33:42;;;;;;;4.03;2.60;;;;;;;0.70;54.16;100070.84;1426319;91;21490;-76
2023/03/28 05:36:09;;;;;;;2.43;1.37;;;;;;;0.75;54.15;100076.62;1452884;88;22439;-78
2023/03/28 05:38:36;;;;;;;7.50;3.80;;;;;;;0.76;52.76;100076.16;1429397;91;21713;-76
2023/03/28 05:41:03;;;;;;;8.57;3.27;;;;;;;0.78;53.72;100082.95;1456432;88;22646;-76
2023/03/28 05:43:29;;;;;;;4.20;2.30;;;;;;;0.82;53.92;100079.20;1420975;91;22288;-77
2023/03/28 05:46:05;;;;;;;6.67;2.93;;;;;;;0.89;52.57;100086.17;1446025;88;21669;-76
2023/03/28 05:48:31;;;;;;;5.33;1.80;;;;;;;0.93;51.20;100083.77;1450539;89;21818;-76
2023/03/28 05:50:58;;;;;;;5.97;2.23;;;;;;;1.03;52.32;100087.94;1424865;91;21691;-76
2023/03/28 05:53:24;;;;;;;3.40;2.30;;;;;;;1.06;51.00;100083.36;1456117;90;22410;-76
2023/03/28 05:55:53;;;;;;;9.50;3.47;;;;;;;1.16;51.94;100090.63;1429212;91;21518;-76
2023/03/28 05:58:19;;;;;;;13.73;5.13;;;;;;;1.25;52.19;100090.88;1453658;89;21597;-75
2023/03/28 06:00:46;;;;;;;5.53;2.57;;;;;;;1.37;52.56;100097.09;1427121;91;22522;-76
2023/03/28 06:03:14;;;;;;;5.70;2.40;;;;;;;1.43;52.56;100093.27;1447106;90;21581;-75
2023/03/28 06:05:41;;;;;;;4.63;1.60;;;;;;;1.50;51.67;100094.56;1424566;91;21698;-76
2023/03/28 06:08:08;;;;;;;7.30;2.90;;;;;;;1.57;50.38;100099.27;1447820;88;21588;-79
2023/03/28 06:10:35;;;;;;;5.43;2.20;;;;;;;1.70;51.95;100101.94;1450479;89;21614;-76
2023/03/28 06:13:01;;;;;;;10.87;3.90;;;;;;;1.78;50.87;100104.90;1452311;89;22508;-76
2023/03/28 06:15:27;;;;;;;4.30;1.63;;;;;;;1.84;50.17;100106.24;1430446;91;21637;-76
2023/03/28 06:17:54;;;;;;;4.70;2.27;;;;;;;1.89;49.04;100104.65;1451873;88;21908;-76
2023/03/28 06:20:20;;;;;;;3.80;1.90;;;;;;;1.98;50.24;100115.79;1456102;90;21641;-74
2023/03/28 06:22:46;;;;;;;4.63;1.63;;;;;;;2.03;50.62;100121.08;1459463;89;22632;-75
2023/03/28 06:25:12;;;;;;;4.77;2.73;;;;;;;2.10;50.07;100124.59;1446002;89;21419;-75
2023/03/28 06:27:38;;;;;;;3.97;1.87;;;;;;;2.17;51.27;100125.40;1429033;91;21364;-75
2023/03/28 06:30:06;;;;;;;4.60;1.67;;;;;;;2.20;48.97;100132.20;1451931;88;21632;-74
2023/03/28 06:32:33;;;;;;;3.27;1.43;;;;;;;2.25;49.21;100132.27;1432855;91;21733;-76
2023/03/28 06:34:59;;;;;;;3.73;1.67;;;;;;;2.28;49.06;100129.09;1464994;90;21642;-76
2023/03/28 06:37:25;;;;;;;4.07;1.40;;;;;;;2.37;48.61;100132.39;1447565;90;22615;-76
2023/03/28 06:39:53;;;;;;;3.43;2.37;;;;;;;2.43;49.62;100135.89;1426755;91;21615;-76
2023/03/28 06:42:20;;;;;;;3.77;1.70;;;;;;;2.46;50.37;100138.30;1453974;89;21690;-75
2023/03/28 06:44:46;;;;;;;2.60;1.43;;;;;;;2.41;47.69;100133.84;1429487;91;21681;-76
2023/03/28 06:47:12;;;;;;;3.07;1.63;;;;;;;2.52;49.58;100142.27;1449170;89;21724;-75
2023/03/28 06:49:39;;;;;;;3.27;1.60;;;;;;;2.59;49.35;100147.44;1452833;90;21716;-74
2023/03/28 06:52:06;;;;;;;4.40;2.53;;;;;;;2.59;49.35;100147.44;1449463;90;21860;-76
2023/03/28 06:54:33;;;;;;;3.83;1.27;;;;;;;2.65;48.94;100134.81;1452496;89;21795;-76
2023/03/28 06:56:59;;;;;;;6.70;2.00;;;;;;;2.79;48.41;100139.55;1451007;89;21941;-76
2023/03/28 06:59:25;;;;;;;2.20;1.70;;;;;;;2.81;47.67;100137.68;1454003;89;22777;-76
2023/03/28 07:01:53;;;;;;;2.70;1.50;;;;;;;2.89;48.07;100140.61;1450204;90;21990;-76
2023/03/28 07:04:20;;;;;;;4.27;1.70;;;;;;;2.89;48.07;100140.61;1422647;91;22201;-76
2023/03/28 07:06:46;;;;;;;3.77;1.67;;;;;;;2.94;47.09;100142.45;1461402;88;21795;-76
2023/03/28 07:09:12;;;;;;;3.13;1.10;;;;;;;2.99;47.96;100132.48;1428706;91;22080;-75
2023/03/28 07:11:43;;;;;;;5.27;1.77;;;;;;;3.14;48.21;100137.98;1449027;90;21854;-76
2023/03/28 07:14:07;;;;;;;2.70;1.60;;;;;;;3.30;48.70;100148.19;1454950;90;22023;-76
2023/03/28 07:16:33;;;;;;;3.50;1.60;;;;;;;3.42;50.03;100136.49;1430527;91;21803;-76
2023/03/28 07:18:59;;;;;;;3.83;2.27;;;;;;;3.42;50.03;100136.49;1455245;89;22109;-76
2023/03/28 07:21:26;;;;;;;7.13;3.10;;;;;;;3.49;46.95;100139.88;1428775;91;23057;-76
2023/03/28 07:23:52;;;;;;;4.17;2.23;;;;;;;3.49;46.95;100139.88;1448216;88;22886;-76
2023/03/28 07:26:18;;;;;;;4.17;1.90;;;;;;;3.50;48.43;100148.08;1448018;89;23188;-76
2023/03/28 07:28:45;;;;;;;4.70;2.17;;;;;;;3.57;46.35;100148.03;1423159;91;22069;-75
2023/03/28 07:31:11;;;;;;;2.20;1.43;;;;;;;3.71;48.34;100144.88;1455828;88;22220;-76
2023/03/28 07:33:37;;;;;;;2.50;1.43;;;;;;;3.75;47.79;100143.72;1453146;90;22952;-76
2023/03/28 07:36:14;;;;;;;2.67;1.70;;;;;;;3.85;46.87;100151.25;1429416;91;22003;-76
2023/03/28 07:38:40;;;;;;;5.83;1.63;;;;;;;3.93;47.28;100152.84;1457738;90;22996;-75
2023/03/28 07:41:08;;;;;;;3.00;1.60;;;;;;;3.91;46.20;100149.50;1422169;91;22047;-76
2023/03/28 07:43:34;;;;;;;3.53;1.53;;;;;;;4.07;45.75;100151.84;1451433;89;22058;-76
2023/03/28 07:46:05;;;;;;;3.33;1.70;;;;;;;4.16;45.36;100152.95;1434967;91;22283;-76
2023/03/28 07:48:33;;;;;;;1.40;1.12;;;;;;;4.27;45.58;100151.69;1450015;89;22990;-75
2023/03/28 07:51:00;;;;;;;2.43;1.30;;;;;;;4.38;46.38;100156.97;1424149;91;21334;-75
2023/03/28 07:53:27;;;;;;;3.03;1.67;;;;;;;4.29;44.78;100160.27;1456530;88;22279;-75
2023/03/28 07:55:53;;;;;;;2.67;1.30;;;;;;;4.52;45.24;100150.22;1428828;91;22047;-75
2023/03/28 07:58:20;;;;;;;4.13;1.77;;;;;;;4.58;44.73;100148.09;1452548;89;21531;-76
2023/03/28 08:00:46;;;;;;;3.50;1.57;;;;;;;4.58;44.73;100148.09;1432697;91;22392;-75
2023/03/28 08:03:13;;;;;;;2.33;1.70;;;;;;;4.63;44.02;100159.90;1451600;88;21434;-75
2023/03/28 08:05:40;;;;;;;2.03;1.27;;;;;;;4.63;44.02;100159.90;1432029;91;21497;-76
2023/03/28 08:08:07;;;;;;;3.53;1.67;;;;;;;4.70;44.34;100152.39;1453587;89;21436;-75
2023/03/28 08:10:36;;;;;;;4.93;1.80;;;;;;;4.76;45.34;100151.92;1452406;89;21604;-76
2023/03/28 08:13:02;;;;;;;5.30;1.60;;;;;;;4.63;43.78;100156.41;1408470;91;21958;-76
2023/03/28 08:15:30;;;;;;;2.97;1.60;;;;;;;4.68;44.39;100147.73;1451225;89;21464;-76
2023/03/28 08:17:56;;;;;;;4.30;1.40;;;;;;;4.68;44.77;100147.73;1455099;89;21449;-76
2023/03/28 08:20:22;;;;;;;4.90;1.77;;;;;;;4.76;43.08;100155.86;1428092;91;21327;-75
2023/03/28 08:22:48;;;;;;;4.80;2.60;;;;;;;4.93;44.39;100155.40;1453012;88;22511;-76
2023/03/28 08:25:14;;;;;;;3.30;1.83;;;;;;;5.04;44.61;100157.69;1430555;91;21401;-75
2023/03/28 08:27:41;;;;;;;2.53;1.67;;;;;;;5.08;42.38;100150.75;1452360;90;21383;-76
2023/03/28 08:30:07;;;;;;;2.40;1.73;;;;;;;5.13;44.62;100162.21;1428948;91;21312;-76
2023/03/28 08:32:33;;;;;;;1.87;1.40;;;;;;;5.18;42.41;100153.52;1448859;89;21466;-76
2023/03/28 08:35:05;;;;;;;3.40;2.00;;;;;;;5.12;41.10;100152.20;1427373;91;21577;-76
2023/03/28 08:37:28;;;;;;;6.57;1.50;;;;;;;5.21;42.03;100155.89;1448807;89;21456;-76
2023/03/28 08:39:55;;;;;;;4.30;2.23;;;;;;;5.33;42.79;100157.55;1449648;89;21374;-76
2023/03/28 08:42:35;;;;;;;2.40;1.60;;;;;;;5.47;40.80;100156.47;1448073;89;21442;-79
2023/03/28 08:45:24;;;;;;;7.92;1.82;;;;;;;5.55;42.72;100156.70;1428703;91;21489;-79
2023/03/28 08:48:11;;;;;;;4.37;2.20;;;;;;;5.57;41.40;100152.63;1459609;88;21345;-79
2023/03/28 08:51:01;;;;;;;3.43;1.60;;;;;;;5.47;41.83;100159.55;1452118;90;21353;-75
2023/03/28 08:53:37;;;;;;;3.27;1.40;;;;;;;5.60;42.03;100157.62;1426195;91;21422;-75
2023/03/28 08:56:06;;;;;;;5.30;1.70;;;;;;;5.58;44.06;100152.97;1453053;89;22530;-75
2023/03/28 08:58:38;;;;;;;4.20;1.87;;;;;;;5.54;42.46;100156.80;1463926;91;22333;-76
2023/03/28 09:01:08;;;;;;;5.57;1.67;;;;;;;5.75;44.05;100149.83;1434177;90;21375;-75
2023/03/28 09:03:35;;;;;;;3.50;1.97;;;;;;;6.12;44.03;100151.30;1449182;89;21502;-75
2023/03/28 09:06:25;;;;;;;6.97;1.90;;;;;;;6.25;41.79;100158.06;1448692;89;21435;-76
2023/03/28 09:09:28;;;;;;;4.67;1.52;;;;;;;6.45;41.60;100159.53;1416952;91;21593;-76
2023/03/28 09:12:02;;;;;;;3.77;1.93;;;;;;;6.47;40.19;100154.95;1454434;89;21360;-76
2023/03/28 09:14:42;;;;;;;2.83;1.60;;;;;;;6.21;39.65;100154.48;1430413;91;22369;-74
2023/03/28 09:17:42;;;;;;;3.00;1.05;;;;;;;6.30;41.37;100153.72;1456414;88;21457;-75
2023/03/28 09:20:22;;;;;;;2.13;1.27;;;;;;;6.46;41.75;100148.04;1435365;91;21451;-74
2023/03/28 09:23:16;;;;;;;2.83;1.40;;;;;;;6.81;44.48;100148.19;1455767;89;21590;-76
2023/03/28 09:25:59;;;;;;;7.33;2.13;;;;;;;6.94;42.19;100155.39;1429190;91;21438;-76
2023/03/28 09:28:55;;;;;;;4.77;2.60;;;;;;;6.78;41.73;100151.42;1452568;89;21450;-77
2023/03/28 09:31:26;;;;;;;2.20;1.57;;;;;;;6.58;42.17;100148.32;1431718;91;21423;-76
2023/03/28 09:33:57;;;;;;;3.37;1.40;;;;;;;6.62;41.45;100148.89;1447141;89;21457;-76
2023/03/28 09:36:32;;;;;;;3.80;1.57;;;;;;;6.81;39.49;100149.50;1428187;91;21496;-76
2023/03/28 09:39:06;;;;;;;5.90;1.83;;;;;;;7.00;41.38;100153.55;1457076;90;21582;-76
2023/03/28 09:41:53;;;;;;;1.60;1.30;;;;;;;7.05;39.89;100155.31;1423179;91;21430;-76
2023/03/28 09:44:24;;;;;;;2.30;1.47;;;;;;;7.29;39.21;100145.77;1451920;89;21678;-76
2023/03/28 09:46:51;;;;;;;1.77;1.40;;;;;;;7.11;37.85;100152.15;1427217;91;21523;-76
2023/03/28 09:49:24;;;;;;;1.90;1.40;;;;;;;7.03;40.07;100158.55;1452972;88;21390;-76
2023/03/28 09:51:56;;;;;;;4.93;1.70;;;;;;;7.03;40.43;100162.50;1438985;91;21422;-76
2023/03/28 09:54:34;;;;;;;4.67;1.47;;;;;;;6.58;38.69;100168.05;1460716;89;21449;-76
2023/03/28 09:57:04;;;;;;;2.13;1.20;;;;;;;6.59;39.58;100167.09;1428923;91;21408;-76
2023/03/28 09:59:33;;;;;;;2.87;1.98;;;;;;;6.54;41.01;100163.53;1448496;90;22271;-76
2023/03/28 10:02:02;;;;;;;2.03;1.20;;;;;;;6.54;40.73;100167.95;1421610;91;21504;-77
2023/03/28 10:04:33;;;;;;;3.53;1.93;;;;;;;6.59;40.77;100160.53;1450977;89;21368;-76
2023/03/28 10:07:18;;;;;;;8.70;3.10;;;;;;;6.83;41.73;100168.63;1419055;91;21392;-76
2023/03/28 10:09:52;;;;;;;4.10;2.27;;;;;;;7.10;40.46;100164.94;1452699;90;21501;-77
2023/03/28 10:12:35;;;;;;;3.13;1.27;;;;;;;7.49;40.42;100156.38;1455954;90;22487;-77
2023/03/28 10:15:03;;;;;;;20.23;9.40;;;;;;;7.92;40.61;100146.82;1433282;91;22378;-77
2023/03/28 10:17:34;;;;;;;12.87;6.07;;;;;;;8.13;39.54;100154.09;1455239;89;22286;-76
2023/03/28 10:20:23;;;;;;;18.00;8.33;;;;;;;7.92;39.03;100161.31;1453446;89;21493;-77
2023/03/28 10:22:57;;;;;;;11.40;4.60;;;;;;;7.79;39.37;100163.36;1427991;91;21305;-77
2023/03/28 10:25:41;;;;;;;22.58;8.15;;;;;;;7.80;38.05;100165.05;1450298;89;22381;-77
2023/03/28 10:28:18;;;;;;;2.33;1.47;;;;;;;7.64;39.08;100155.84;1425999;91;21534;-80
2023/03/28 10:30:58;;;;;;;9.20;4.63;;;;;;;7.67;39.75;100164.79;1450804;89;21420;-78
2023/03/28 10:33:35;;;;;;;4.83;3.00;;;;;;;7.49;40.17;100165.10;1427501;91;21577;-81
2023/03/28 10:36:11;;;;;;;6.37;2.10;;;;;;;7.49;40.17;100165.10;1456794;89;21611;-80
2023/03/28 10:38:45;;;;;;;3.27;1.43;;;;;;;7.57;37.94;100171.85;1428276;91;21617;-76
2023/03/28 10:41:29;;;;;;;1.70;1.17;;;;;;;7.44;39.22;100163.34;1453320;90;22426;-76
2023/03/28 10:43:56;;;;;;;5.33;3.33;;;;;;;7.46;37.96;100171.95;1426609;91;21475;-77
2023/03/28 10:46:36;;;;;;;2.87;1.43;;;;;;;7.44;39.55;100171.25;1459574;88;21398;-76
2023/03/28 10:49:16;;;;;;;2.60;1.45;;;;;;;7.40;37.41;100166.73;1441798;91;22510;-76
2023/03/28 10:51:43;;;;;;;2.90;1.90;;;;;;;7.40;37.41;100166.73;1451293;90;22389;-75
2023/03/28 10:54:44;;;;;;;4.30;2.63;;;;;;;7.12;37.70;100166.97;1454146;89;21505;-76
2023/03/28 10:57:14;;;;;;;;;;;;;;;7.06;38.99;100162.23;1418115;91;21652;-76
2023/03/28 11:00:15;;;;;;;2.50;1.83;;;;;;;6.91;39.15;100164.87;1416479;92;20303;-77
2023/03/28 11:03:14;;;;;;;3.50;1.30;;;;;;;6.96;38.79;100168.78;1455825;90;21456;-76
2023/03/28 11:05:54;;;;;;;9.80;4.30;;;;;;;6.85;40.23;100162.27;1430790;91;21430;-76
2023/03/28 11:09:03;;;;;;;3.80;2.85;;;;;;;6.93;39.60;100158.97;1455538;89;21466;-77
2023/03/28 11:12:12;;;;;;;2.27;1.17;;;;;;;7.24;39.95;100151.42;1427145;91;21776;-76
2023/03/28 11:15:06;;;;;;;2.27;1.50;;;;;;;7.14;36.28;100155.84;1456628;88;21354;-77
2023/03/28 11:18:08;;;;;;;3.90;0.97;;;;;;;7.27;38.45;100148.19;1411096;91;22376;-77
2023/03/28 11:21:02;;;;;;;1.20;1.00;;;;;;;7.22;37.96;100144.16;1453365;90;21455;-77
2023/03/28 11:23:40;;;;;;;3.13;1.20;;;;;;;7.34;38.29;100144.90;1446762;90;22425;-76
2023/03/28 11:26:12;;;;;;;2.77;1.73;;;;;;;7.28;39.22;100141.48;1429955;91;21446;-77
2023/03/28 11:29:08;;;;;;;2.07;1.27;;;;;;;7.39;34.82;100137.89;1458453;88;21412;-77
2023/03/28 11:31:49;;;;;;;2.57;1.20;;;;;;;7.59;36.62;100136.14;1427195;91;21534;-77
2023/03/28 11:34:58;;;;;;;3.02;1.40;;;;;;;7.68;36.51;100124.33;1458392;89;22315;-77
2023/03/28 11:37:43;;;;;;;2.93;1.37;;;;;;;7.66;37.01;100123.62;1443955;90;22358;-76
2023/03/28 11:40:18;;;;;;;3.07;1.43;;;;;;;8.20;38.29;100121.91;1446347;89;21626;-77
2023/03/28 11:42:52;;;;;;;2.10;1.33;;;;;;;8.48;37.12;100121.08;1430332;91;21459;-77
2023/03/28 11:45:35;;;;;;;2.53;1.20;;;;;;;8.85;36.24;100124.25;1456598;89;22396;-77
2023/03/28 11:48:34;;;;;;;1.83;1.30;;;;;;;8.63;37.45;100121.48;1430291;91;21813;-77
2023/03/28 11:51:35;;;;;;;1.93;1.10;;;;;;;8.48;37.69;100122.39;1443490;90;21456;-77
2023/03/28 11:54:10;;;;;;;1.42;1.10;;;;;;;8.52;38.21;100125.11;1420130;91;22495;-77
2023/03/28 11:57:08;;;;;;;1.83;1.33;;;;;;;8.07;34.08;100126.16;1453747;89;21649;-76
2023/03/28 12:00:03;;;;;;;2.10;1.20;;;;;;;7.98;36.94;100126.98;1426926;91;21533;-77
2023/03/28 12:03:09;;;;;;;3.67;1.30;;;;;;;7.74;35.60;100127.36;1448260;89;21435;-77
2023/03/28 12:05:40;;;;;;;2.57;1.20;;;;;;;7.08;35.92;100130.05;1409806;91;22307;-77